sensor_id;sensor_type;location;lat;lon;timestamp;pressure;altitude;pressure_sealevel;temperature;humidity
3260;BME280;68938;48.150;14.004;2023-05-07T00:02:03;98007.59;;;18.77;63.51
3260;BME280;68938;48.150;14.004;2023-05-07T00:04:30;98007.81;;;18.74;64.40
3260;BME280;68938;48.150;14.004;2023-05-07T00:06:57;98010.88;;;18.66;64.48
3260;BME280;68938;48.150;14.004;2023-05-07T00:09:24;98010.88;;;18.66;64.72
3260;BME280;68938;48.150;14.004;2023-05-07T00:11:51;98006.72;;;18.63;64.56
3260;BME280;68938;48.150;14.004;2023-05-07T00:14:18;98010.44;;;18.59;64.41
3260;BME280;68938;48.150;14.004;2023-05-07T00:16:45;98013.22;;;18.56;64.43
3260;BME280;68938;48.150;14.004;2023-05-07T00:19:12;98013.34;;;18.55;64.54
3260;BME280;68938;48.150;14.004;2023-05-07T00:21:38;98013.63;;;18.50;64.48
3260;BME280;68938;48.150;14.004;2023-05-07T00:24:05;98012.81;;;18.35;64.97
3260;BME280;68938;48.150;14.004;2023-05-07T00:26:32;98011.38;;;18.31;65.19
3260;BME280;68938;48.150;14.004;2023-05-07T00:28:59;98010.84;;;18.26;65.22
3260;BME280;68938;48.150;14.004;2023-05-07T00:31:26;98016.22;;;18.23;65.34
3260;BME280;68938;48.150;14.004;2023-05-07T00:33:53;98024.91;;;18.22;65.51
3260;BME280;68938;48.150;14.004;2023-05-07T00:36:20;98012.34;;;18.16;65.36
3260;BME280;68938;48.150;14.004;2023-05-07T00:38:47;98023.56;;;18.16;65.59
3260;BME280;68938;48.150;14.004;2023-05-07T00:41:13;98016.97;;;18.11;65.82
3260;BME280;68938;48.150;14.004;2023-05-07T00:43:40;98026.63;;;18.09;65.62
3260;BME280;68938;48.150;14.004;2023-05-07T00:46:07;98023.19;;;18.08;65.15
3260;BME280;68938;48.150;14.004;2023-05-07T00:48:34;98022.34;;;18.08;65.14
3260;BME280;68938;48.150;14.004;2023-05-07T00:51:01;98022.53;;;18.05;65.57
3260;BME280;68938;48.150;14.004;2023-05-07T00:53:28;98023.41;;;18.05;65.30
3260;BME280;68938;48.150;14.004;2023-05-07T00:55:55;98024.41;;;18.03;65.35
3260;BME280;68938;48.150;14.004;2023-05-07T00:58:22;98026.06;;;18.04;64.95
3260;BME280;68938;48.150;14.004;2023-05-07T01:00:50;98033.22;;;18.00;65.05
3260;BME280;68938;48.150;14.004;2023-05-07T01:03:17;98030.81;;;17.97;65.11
3260;BME280;68938;48.150;14.004;2023-05-07T01:05:46;98028.13;;;17.98;64.78
3260;BME280;68938;48.150;14.004;2023-05-07T01:08:15;98026.56;;;17.96;65.07
3260;BME280;68938;48.150;14.004;2023-05-07T01:10:43;98028.31;;;17.95;65.05
3260;BME280;68938;48.150;14.004;2023-05-07T01:13:12;98033.69;;;17.92;65.14
3260;BME280;68938;48.150;14.004;2023-05-07T01:15:41;98027.03;;;17.88;65.31
3260;BME280;68938;48.150;14.004;2023-05-07T01:18:08;98033.13;;;17.87;64.97
3260;BME280;68938;48.150;14.004;2023-05-07T01:20:34;98034.06;;;17.86;64.99
3260;BME280;68938;48.150;14.004;2023-05-07T01:23:03;98029.81;;;17.85;65.86
3260;BME280;68938;48.150;14.004;2023-05-07T01:25:30;98034.34;;;17.82;65.52
3260;BME280;68938;48.150;14.004;2023-05-07T01:27:57;98040.81;;;17.74;65.93
3260;BME280;68938;48.150;14.004;2023-05-07T01:30:24;98047.09;;;17.70;65.54
3260;BME280;68938;48.150;14.004;2023-05-07T01:32:56;98037.84;;;17.66;65.84
3260;BME280;68938;48.150;14.004;2023-05-07T01:35:32;98040.44;;;17.66;65.78
3260;BME280;68938;48.150;14.004;2023-05-07T01:38:03;98037.13;;;17.64;66.13
3260;BME280;68938;48.150;14.004;2023-05-07T01:40:30;98041.44;;;17.64;66.22
3260;BME280;68938;48.150;14.004;2023-05-07T01:42:57;98031.34;;;17.59;65.75
3260;BME280;68938;48.150;14.004;2023-05-07T01:45:24;98042.56;;;17.60;65.52
3260;BME280;68938;48.150;14.004;2023-05-07T01:47:53;98038.47;;;17.56;65.89
3260;BME280;68938;48.150;14.004;2023-05-07T01:50:20;98037.94;;;17.50;65.94
3260;BME280;68938;48.150;14.004;2023-05-07T01:52:49;98033.66;;;17.49;65.99
3260;BME280;68938;48.150;14.004;2023-05-07T01:55:17;98043.31;;;17.47;66.06
3260;BME280;68938;48.150;14.004;2023-05-07T01:57:44;98039.78;;;17.48;65.87
3260;BME280;68938;48.150;14.004;2023-05-07T02:00:11;98030.53;;;17.44;66.01
3260;BME280;68938;48.150;14.004;2023-05-07T02:02:39;98024.59;;;17.42;65.81
3260;BME280;68938;48.150;14.004;2023-05-07T02:05:06;98032.34;;;17.42;65.98
3260;BME280;68938;48.150;14.004;2023-05-07T02:07:34;98036.06;;;17.38;66.14
3260;BME280;68938;48.150;14.004;2023-05-07T02:10:00;98029.28;;;17.36;66.39
3260;BME280;68938;48.150;14.004;2023-05-07T02:12:27;98019.28;;;17.29;66.37
3260;BME280;68938;48.150;14.004;2023-05-07T02:14:55;98030.97;;;17.37;66.33
3260;BME280;68938;48.150;14.004;2023-05-07T02:17:22;98033.66;;;17.35;66.54
3260;BME280;68938;48.150;14.004;2023-05-07T02:19:48;98041.44;;;17.35;66.27
3260;BME280;68938;48.150;14.004;2023-05-07T02:22:15;98038.06;;;17.33;66.56
3260;BME280;68938;48.150;14.004;2023-05-07T02:24:42;98036.59;;;17.29;66.67
3260;BME280;68938;48.150;14.004;2023-05-07T02:27:09;98037.53;;;17.28;67.23
3260;BME280;68938;48.150;14.004;2023-05-07T02:29:36;98039.94;;;17.31;66.36
3260;BME280;68938;48.150;14.004;2023-05-07T02:32:03;98033.34;;;17.25;66.08
3260;BME280;68938;48.150;14.004;2023-05-07T02:34:30;98037.63;;;17.26;66.73
3260;BME280;68938;48.150;14.004;2023-05-07T02:36:57;98043.72;;;17.25;66.68
3260;BME280;68938;48.150;14.004;2023-05-07T02:39:24;98033.28;;;17.27;66.34
3260;BME280;68938;48.150;14.004;2023-05-07T02:41:51;98025.50;;;17.27;66.46
3260;BME280;68938;48.150;14.004;2023-05-07T02:44:18;98013.53;;;17.24;66.54
3260;BME280;68938;48.150;14.004;2023-05-07T02:46:44;98027.06;;;17.29;66.46
3260;BME280;68938;48.150;14.004;2023-05-07T02:49:11;98014.47;;;17.23;66.23
3260;BME280;68938;48.150;14.004;2023-05-07T02:51:38;98026.22;;;17.29;66.32
3260;BME280;68938;48.150;14.004;2023-05-07T02:54:05;98029.09;;;17.24;66.60
3260;BME280;68938;48.150;14.004;2023-05-07T02:56:32;98037.63;;;17.26;66.21
3260;BME280;68938;48.150;14.004;2023-05-07T02:58:59;98036.78;;;17.26;66.25
3260;BME280;68938;48.150;14.004;2023-05-07T03:01:25;98046.31;;;17.25;66.34
3260;BME280;68938;48.150;14.004;2023-05-07T03:03:52;98041.97;;;17.26;66.51
3260;BME280;68938;48.150;14.004;2023-05-07T03:06:19;98038.53;;;17.25;66.26
3260;BME280;68938;48.150;14.004;2023-05-07T03:08:46;98042.88;;;17.25;66.29
3260;BME280;68938;48.150;14.004;2023-05-07T03:11:13;98043.06;;;17.22;66.56
3260;BME280;68938;48.150;14.004;2023-05-07T03:13:40;98048.19;;;17.23;66.85
3260;BME280;68938;48.150;14.004;2023-05-07T03:16:07;98039.66;;;17.21;66.87
3260;BME280;68938;48.150;14.004;2023-05-07T03:18:34;98047.41;;;17.21;66.92
3260;BME280;68938;48.150;14.004;2023-05-07T03:21:01;98045.66;;;17.22;66.64
3260;BME280;68938;48.150;14.004;2023-05-07T03:23:28;98048.25;;;17.22;66.98
3260;BME280;68938;48.150;14.004;2023-05-07T03:25:54;98049.19;;;17.21;66.75
3260;BME280;68938;48.150;14.004;2023-05-07T03:28:21;98044.84;;;17.21;66.74
3260;BME280;68938;48.150;14.004;2023-05-07T03:30:48;98038.81;;;17.21;66.85
3260;BME280;68938;48.150;14.004;2023-05-07T03:33:15;98043.06;;;17.22;66.92
3260;BME280;68938;48.150;14.004;2023-05-07T03:35:42;98036.13;;;17.22;66.90
3260;BME280;68938;48.150;14.004;2023-05-07T03:38:09;98044.06;;;17.19;67.11
3260;BME280;68938;48.150;14.004;2023-05-07T03:40:36;98043.16;;;17.20;67.16
3260;BME280;68938;48.150;14.004;2023-05-07T03:43:02;98042.25;;;17.21;66.96
3260;BME280;68938;48.150;14.004;2023-05-07T03:45:29;98046.59;;;17.21;66.74
3260;BME280;68938;48.150;14.004;2023-05-07T03:47:56;98050.13;;;17.20;66.70
3260;BME280;68938;48.150;14.004;2023-05-07T03:50:23;98056.19;;;17.19;66.93
3260;BME280;68938;48.150;14.004;2023-05-07T03:52:50;98054.53;;;17.18;67.06
3260;BME280;68938;48.150;14.004;2023-05-07T03:55:17;98057.25;;;17.16;66.96
3260;BME280;68938;48.150;14.004;2023-05-07T03:57:44;98058.97;;;17.16;67.21
3260;BME280;68938;48.150;14.004;2023-05-07T04:00:12;98065.00;;;17.16;67.16
3260;BME280;68938;48.150;14.004;2023-05-07T04:02:39;98062.50;;;17.15;67.22
3260;BME280;68938;48.150;14.004;2023-05-07T04:05:07;98061.56;;;17.16;67.10
3260;BME280;68938;48.150;14.004;2023-05-07T04:07:34;98063.31;;;17.15;66.95
3260;BME280;68938;48.150;14.004;2023-05-07T04:10:01;98067.59;;;17.16;67.17
3260;BME280;68938;48.150;14.004;2023-05-07T04:12:28;98068.34;;;17.18;67.45
3260;BME280;68938;48.150;14.004;2023-05-07T04:14:55;98071.75;;;17.19;67.00
3260;BME280;68938;48.150;14.004;2023-05-07T04:17:21;98077.78;;;17.19;66.97
3260;BME280;68938;48.150;14.004;2023-05-07T04:19:48;98075.44;;;17.15;67.44
3260;BME280;68938;48.150;14.004;2023-05-07T04:22:15;98075.44;;;17.15;67.22
3260;BME280;68938;48.150;14.004;2023-05-07T04:24:42;98073.78;;;17.14;67.42
3260;BME280;68938;48.150;14.004;2023-05-07T04:27:09;98074.69;;;17.13;67.68
3260;BME280;68938;48.150;14.004;2023-05-07T04:29:36;98078.16;;;17.13;67.71
3260;BME280;68938;48.150;14.004;2023-05-07T04:32:03;98082.41;;;17.14;68.18
3260;BME280;68938;48.150;14.004;2023-05-07T04:34:30;98087.47;;;17.16;68.17
3260;BME280;68938;48.150;14.004;2023-05-07T04:36:58;98087.41;;;17.17;68.13
3260;BME280;68938;48.150;14.004;2023-05-07T04:39:26;98083.06;;;17.18;68.25
3260;BME280;68938;48.150;14.004;2023-05-07T04:41:53;98088.06;;;17.21;68.32
3260;BME280;68938;48.150;14.004;2023-05-07T04:44:19;98086.19;;;17.23;68.29
3260;BME280;68938;48.150;14.004;2023-05-07T04:46:46;98093.81;;;17.26;68.74
3260;BME280;68938;48.150;14.004;2023-05-07T04:49:13;98097.16;;;17.28;68.41
3260;BME280;68938;48.150;14.004;2023-05-07T04:51:40;98097.91;;;17.30;68.28
3260;BME280;68938;48.150;14.004;2023-05-07T04:54:07;98102.72;;;17.36;68.22
3260;BME280;68938;48.150;14.004;2023-05-07T04:56:33;98099.94;;;17.39;68.20
3260;BME280;68938;48.150;14.004;2023-05-07T04:59:00;98104.91;;;17.44;68.17
3260;BME280;68938;48.150;14.004;2023-05-07T05:01:27;98106.38;;;17.48;67.60
3260;BME280;68938;48.150;14.004;2023-05-07T05:03:54;98102.69;;;17.52;67.04
3260;BME280;68938;48.150;14.004;2023-05-07T05:06:21;98101.38;;;17.59;66.21
3260;BME280;68938;48.150;14.004;2023-05-07T05:08:48;98110.81;;;17.60;65.63
3260;BME280;68938;48.150;14.004;2023-05-07T05:11:15;98109.00;;;17.62;65.59
3260;BME280;68938;48.150;14.004;2023-05-07T05:13:42;98109.75;;;17.64;65.20
3260;BME280;68938;48.150;14.004;2023-05-07T05:16:09;98106.94;;;17.67;65.31
3260;BME280;68938;48.150;14.004;2023-05-07T05:18:36;98106.59;;;17.73;64.85
3260;BME280;68938;48.150;14.004;2023-05-07T05:21:02;98105.94;;;17.70;63.98
3260;BME280;68938;48.150;14.004;2023-05-07T05:23:29;98109.47;;;17.69;64.42
3260;BME280;68938;48.150;14.004;2023-05-07T05:25:57;98107.28;;;17.77;64.43
3260;BME280;68938;48.150;14.004;2023-05-07T05:28:24;98113.03;;;17.82;64.17
3260;BME280;68938;48.150;14.004;2023-05-07T05:30:52;98115.28;;;17.88;63.42
3260;BME280;68938;48.150;14.004;2023-05-07T05:33:19;98110.63;;;17.93;62.74
3260;BME280;68938;48.150;14.004;2023-05-07T05:35:45;98113.56;;;17.87;63.08
3260;BME280;68938;48.150;14.004;2023-05-07T05:38:13;98123.13;;;18.01;63.19
3260;BME280;68938;48.150;14.004;2023-05-07T05:40:40;98122.75;;;18.07;62.74
3260;BME280;68938;48.150;14.004;2023-05-07T05:43:07;98123.81;;;18.19;62.89
3260;BME280;68938;48.150;14.004;2023-05-07T05:45:34;98133.88;;;18.23;61.96
3260;BME280;68938;48.150;14.004;2023-05-07T05:48:00;98128.34;;;18.30;62.23
3260;BME280;68938;48.150;14.004;2023-05-07T05:50:27;98127.09;;;18.35;61.86
3260;BME280;68938;48.150;14.004;2023-05-07T05:52:54;98121.91;;;18.50;62.49
3260;BME280;68938;48.150;14.004;2023-05-07T05:55:21;98128.66;;;18.52;61.75
3260;BME280;68938;48.150;14.004;2023-05-07T05:57:48;98120.13;;;18.50;62.03
3260;BME280;68938;48.150;14.004;2023-05-07T06:00:16;98128.97;;;18.33;61.83
3260;BME280;68938;48.150;14.004;2023-05-07T06:02:43;98126.25;;;18.49;61.77
3260;BME280;68938;48.150;14.004;2023-05-07T06:05:10;98121.72;;;18.38;61.46
3260;BME280;68938;48.150;14.004;2023-05-07T06:07:37;98123.91;;;18.59;61.09
3260;BME280;68938;48.150;14.004;2023-05-07T06:10:05;98127.34;;;18.74;60.68
3260;BME280;68938;48.150;14.004;2023-05-07T06:12:32;98123.38;;;18.95;60.73
3260;BME280;68938;48.150;14.004;2023-05-07T06:14:59;98120.78;;;18.95;60.45
3260;BME280;68938;48.150;14.004;2023-05-07T06:17:26;98118.94;;;19.10;60.10
3260;BME280;68938;48.150;14.004;2023-05-07T06:19:53;98113.88;;;19.21;59.73
3260;BME280;68938;48.150;14.004;2023-05-07T06:22:20;98118.16;;;19.35;58.71
3260;BME280;68938;48.150;14.004;2023-05-07T06:24:47;98130.28;;;19.49;58.38
3260;BME280;68938;48.150;14.004;2023-05-07T06:27:14;98113.00;;;19.60;58.34
3260;BME280;68938;48.150;14.004;2023-05-07T06:29:40;98119.72;;;19.77;57.09
3260;BME280;68938;48.150;14.004;2023-05-07T06:32:08;98119.38;;;19.69;57.65
3260;BME280;68938;48.150;14.004;2023-05-07T06:34:40;98098.97;;;18.98;58.55
3260;BME280;68938;48.150;14.004;2023-05-07T06:37:07;98110.63;;;19.17;58.63
3260;BME280;68938;48.150;14.004;2023-05-07T06:39:34;98105.59;;;19.29;58.53
3260;BME280;68938;48.150;14.004;2023-05-07T06:42:01;98114.44;;;18.99;58.16
3260;BME280;68938;48.150;14.004;2023-05-07T06:44:28;98104.75;;;19.28;58.37
3260;BME280;68938;48.150;14.004;2023-05-07T06:46:55;98118.63;;;19.54;57.20
3260;BME280;68938;48.150;14.004;2023-05-07T06:49:22;98122.34;;;19.37;57.38
3260;BME280;68938;48.150;14.004;2023-05-07T06:51:48;98124.28;;;19.21;58.47
3260;BME280;68938;48.150;14.004;2023-05-07T06:54:15;98128.81;;;19.32;57.54
3260;BME280;68938;48.150;14.004;2023-05-07T06:56:42;98128.50;;;19.36;57.73
3260;BME280;68938;48.150;14.004;2023-05-07T06:59:09;98135.94;;;19.68;57.02
3260;BME280;68938;48.150;14.004;2023-05-07T07:01:36;98137.22;;;20.01;56.47
3260;BME280;68938;48.150;14.004;2023-05-07T07:04:03;98142.72;;;20.34;55.18
3260;BME280;68938;48.150;14.004;2023-05-07T07:06:30;98136.34;;;20.51;54.82
3260;BME280;68938;48.150;14.004;2023-05-07T07:08:58;98132.16;;;20.86;54.30
3260;BME280;68938;48.150;14.004;2023-05-07T07:11:25;98131.19;;;20.99;54.21
3260;BME280;68938;48.150;14.004;2023-05-07T07:13:52;98130.00;;;20.79;53.63
3260;BME280;68938;48.150;14.004;2023-05-07T07:16:20;98121.97;;;21.06;53.90
3260;BME280;68938;48.150;14.004;2023-05-07T07:18:48;98117.88;;;21.02;52.64
3260;BME280;68938;48.150;14.004;2023-05-07T07:21:15;98125.19;;;20.86;53.00
3260;BME280;68938;48.150;14.004;2023-05-07T07:23:42;98114.41;;;20.91;53.19
3260;BME280;68938;48.150;14.004;2023-05-07T07:26:09;98110.56;;;21.08;53.53
3260;BME280;68938;48.150;14.004;2023-05-07T07:28:42;98121.47;;;21.37;52.95
3260;BME280;68938;48.150;14.004;2023-05-07T07:31:12;98115.28;;;21.26;52.75
3260;BME280;68938;48.150;14.004;2023-05-07T07:33:39;98110.03;;;21.50;52.68
3260;BME280;68938;48.150;14.004;2023-05-07T07:36:07;98107.53;;;21.14;52.59
3260;BME280;68938;48.150;14.004;2023-05-07T07:38:34;98110.59;;;21.43;52.65
3260;BME280;68938;48.150;14.004;2023-05-07T07:41:01;98106.16;;;21.32;52.22
3260;BME280;68938;48.150;14.004;2023-05-07T07:43:28;98101.97;;;21.29;51.94
3260;BME280;68938;48.150;14.004;2023-05-07T07:45:55;98096.50;;;21.45;51.51
3260;BME280;68938;48.150;14.004;2023-05-07T07:48:22;98107.66;;;21.47;51.66
3260;BME280;68938;48.150;14.004;2023-05-07T07:50:50;98112.75;;;21.14;52.42
3260;BME280;68938;48.150;14.004;2023-05-07T07:53:18;98114.78;;;21.57;50.98
3260;BME280;68938;48.150;14.004;2023-05-07T07:55:45;98105.78;;;21.61;50.95
3260;BME280;68938;48.150;14.004;2023-05-07T07:58:12;98103.88;;;21.51;51.24
3260;BME280;68938;48.150;14.004;2023-05-07T08:00:39;98118.78;;;21.96;50.48
3260;BME280;68938;48.150;14.004;2023-05-07T08:03:09;98126.09;;;21.91;49.85
3260;BME280;68938;48.150;14.004;2023-05-07T08:05:37;98116.50;;;21.80;48.65
3260;BME280;68938;48.150;14.004;2023-05-07T08:08:04;98129.16;;;21.62;50.36
3260;BME280;68938;48.150;14.004;2023-05-07T08:10:32;98125.50;;;21.65;50.03
3260;BME280;68938;48.150;14.004;2023-05-07T08:13:00;98126.72;;;22.06;49.71
3260;BME280;68938;48.150;14.004;2023-05-07T08:15:27;98122.81;;;22.11;48.90
3260;BME280;68938;48.150;14.004;2023-05-07T08:17:54;98123.06;;;22.31;49.45
3260;BME280;68938;48.150;14.004;2023-05-07T08:20:21;98111.94;;;22.72;47.73
3260;BME280;68938;48.150;14.004;2023-05-07T08:22:48;98121.84;;;23.12;46.90
3260;BME280;68938;48.150;14.004;2023-05-07T08:25:15;98119.25;;;23.01;46.30
3260;BME280;68938;48.150;14.004;2023-05-07T08:27:42;98125.22;;;23.03;46.16
3260;BME280;68938;48.150;14.004;2023-05-07T08:30:09;98132.03;;;22.71;46.47
3260;BME280;68938;48.150;14.004;2023-05-07T08:32:37;98126.84;;;23.15;46.06
3260;BME280;68938;48.150;14.004;2023-05-07T08:35:05;98129.50;;;23.25;43.97
3260;BME280;68938;48.150;14.004;2023-05-07T08:37:32;98110.97;;;23.49;45.32
3260;BME280;68938;48.150;14.004;2023-05-07T08:39:59;98117.38;;;23.77;43.71
3260;BME280;68938;48.150;14.004;2023-05-07T08:42:27;98116.34;;;23.68;43.71
3260;BME280;68938;48.150;14.004;2023-05-07T08:44:57;98119.78;;;23.48;43.91
3260;BME280;68938;48.150;14.004;2023-05-07T08:47:27;98119.53;;;23.51;43.70
3260;BME280;68938;48.150;14.004;2023-05-07T08:49:56;98126.22;;;23.44;44.52
3260;BME280;68938;48.150;14.004;2023-05-07T08:52:23;98124.75;;;23.51;44.13
3260;BME280;68938;48.150;14.004;2023-05-07T08:54:50;98133.81;;;23.47;44.33
3260;BME280;68938;48.150;14.004;2023-05-07T08:57:17;98122.69;;;23.33;43.34
3260;BME280;68938;48.150;14.004;2023-05-07T08:59:44;98134.47;;;23.39;44.17
3260;BME280;68938;48.150;14.004;2023-05-07T09:02:11;98129.03;;;23.52;44.15
3260;BME280;68938;48.150;14.004;2023-05-07T09:04:38;98122.03;;;23.73;42.89
3260;BME280;68938;48.150;14.004;2023-05-07T09:07:05;98111.88;;;23.80;43.05
3260;BME280;68938;48.150;14.004;2023-05-07T09:09:32;98117.50;;;24.06;42.57
3260;BME280;68938;48.150;14.004;2023-05-07T09:12:00;98116.06;;;24.23;41.90
3260;BME280;68938;48.150;14.004;2023-05-07T09:14:26;98110.69;;;24.24;42.60
3260;BME280;68938;48.150;14.004;2023-05-07T09:16:54;98107.47;;;24.42;43.05
3260;BME280;68938;48.150;14.004;2023-05-07T09:19:25;98104.50;;;24.66;42.18
3260;BME280;68938;48.150;14.004;2023-05-07T09:22:01;98107.53;;;24.71;41.60
3260;BME280;68938;48.150;14.004;2023-05-07T09:24:30;98098.00;;;24.99;41.81
3260;BME280;68938;48.150;14.004;2023-05-07T09:27:01;98103.53;;;24.76;42.02
3260;BME280;68938;48.150;14.004;2023-05-07T09:29:29;98095.34;;;24.50;41.43
3260;BME280;68938;48.150;14.004;2023-05-07T09:31:56;98104.03;;;24.41;41.63
3260;BME280;68938;48.150;14.004;2023-05-07T09:34:23;98106.94;;;24.57;42.31
3260;BME280;68938;48.150;14.004;2023-05-07T09:36:50;98108.91;;;24.85;41.71
3260;BME280;68938;48.150;14.004;2023-05-07T09:39:16;98107.72;;;25.18;42.39
3260;BME280;68938;48.150;14.004;2023-05-07T09:41:45;98102.59;;;25.36;41.15
3260;BME280;68938;48.150;14.004;2023-05-07T09:44:15;98100.50;;;25.49;40.81
3260;BME280;68938;48.150;14.004;2023-05-07T09:46:43;98103.66;;;25.82;40.35
3260;BME280;68938;48.150;14.004;2023-05-07T09:49:20;98112.63;;;25.79;40.81
3260;BME280;68938;48.150;14.004;2023-05-07T09:51:51;98105.63;;;26.07;40.42
3260;BME280;68938;48.150;14.004;2023-05-07T09:54:18;98098.81;;;26.14;40.89
3260;BME280;68938;48.150;14.004;2023-05-07T09:56:45;98094.06;;;26.28;40.17
3260;BME280;68938;48.150;14.004;2023-05-07T09:59:16;98084.91;;;26.32;38.52
3260;BME280;68938;48.150;14.004;2023-05-07T10:01:44;98088.59;;;26.39;38.79
3260;BME280;68938;48.150;14.004;2023-05-07T10:04:12;98095.06;;;26.44;38.48
3260;BME280;68938;48.150;14.004;2023-05-07T10:06:40;98085.72;;;26.60;38.36
3260;BME280;68938;48.150;14.004;2023-05-07T10:09:07;98080.16;;;26.63;39.20
3260;BME280;68938;48.150;14.004;2023-05-07T10:11:36;98079.91;;;26.84;38.65
3260;BME280;68938;48.150;14.004;2023-05-07T10:14:04;98088.16;;;26.53;38.38
3260;BME280;68938;48.150;14.004;2023-05-07T10:16:33;98082.75;;;26.45;38.40
3260;BME280;68938;48.150;14.004;2023-05-07T10:19:03;98081.16;;;26.34;38.26
3260;BME280;68938;48.150;14.004;2023-05-07T10:21:31;98086.13;;;26.37;38.92
3260;BME280;68938;48.150;14.004;2023-05-07T10:24:21;98084.38;;;25.91;39.40
3260;BME280;68938;48.150;14.004;2023-05-07T10:26:53;98083.03;;;26.14;40.43
3260;BME280;68938;48.150;14.004;2023-05-07T10:32:47;98077.28;;;26.29;39.25
3260;BME280;68938;48.150;14.004;2023-05-07T10:35:20;98074.75;;;26.19;39.19
3260;BME280;68938;48.150;14.004;2023-05-07T10:37:49;98063.06;;;26.21;38.47
3260;BME280;68938;48.150;14.004;2023-05-07T10:40:16;98062.59;;;26.08;39.71
3260;BME280;68938;48.150;14.004;2023-05-07T10:43:04;98070.09;;;26.03;40.12
3260;BME280;68938;48.150;14.004;2023-05-07T10:45:36;98056.91;;;26.40;40.12
3260;BME280;68938;48.150;14.004;2023-05-07T10:48:06;98064.91;;;26.39;38.88
3260;BME280;68938;48.150;14.004;2023-05-07T10:51:18;98058.56;;;26.14;38.86
3260;BME280;68938;48.150;14.004;2023-05-07T10:53:46;98059.81;;;26.37;38.82
3260;BME280;68938;48.150;14.004;2023-05-07T10:58:45;98054.59;;;26.28;38.36
3260;BME280;68938;48.150;14.004;2023-05-07T11:01:12;98049.38;;;26.45;39.28
3260;BME280;68938;48.150;14.004;2023-05-07T11:04:14;98046.75;;;26.45;38.87
3260;BME280;68938;48.150;14.004;2023-05-07T11:15:15;98049.28;;;26.47;39.09
3260;BME280;68938;48.150;14.004;2023-05-07T11:18:02;98052.28;;;26.42;39.05
3260;BME280;68938;48.150;14.004;2023-05-07T11:26:09;98046.09;;;26.43;38.83
3260;BME280;68938;48.150;14.004;2023-05-07T11:28:39;98049.81;;;26.41;38.14
3260;BME280;68938;48.150;14.004;2023-05-07T11:31:10;98034.22;;;26.39;37.93
3260;BME280;68938;48.150;14.004;2023-05-07T11:33:38;98039.81;;;26.54;37.16
3260;BME280;68938;48.150;14.004;2023-05-07T11:36:05;98045.88;;;26.55;37.80
3260;BME280;68938;48.150;14.004;2023-05-07T11:38:36;98041.44;;;26.73;38.49
3260;BME280;68938;48.150;14.004;2023-05-07T11:41:04;98038.34;;;26.14;37.21
3260;BME280;68938;48.150;14.004;2023-05-07T11:43:32;98048.53;;;25.99;37.83
3260;BME280;68938;48.150;14.004;2023-05-07T11:46:09;98044.09;;;26.00;38.36
3260;BME280;68938;48.150;14.004;2023-05-07T11:48:38;98030.41;;;26.24;38.36
3260;BME280;68938;48.150;14.004;2023-05-07T11:51:06;98032.81;;;26.35;38.72
3260;BME280;68938;48.150;14.004;2023-05-07T11:53:38;98030.97;;;26.45;37.32
3260;BME280;68938;48.150;14.004;2023-05-07T11:58:36;98033.03;;;26.24;38.45
3260;BME280;68938;48.150;14.004;2023-05-07T12:01:03;98032.13;;;26.15;38.89
3260;BME280;68938;48.150;14.004;2023-05-07T12:03:30;98032.44;;;26.12;37.30
3260;BME280;68938;48.150;14.004;2023-05-07T12:06:01;98031.53;;;26.21;37.50
3260;BME280;68938;48.150;14.004;2023-05-07T12:08:28;98025.66;;;26.10;36.79
3260;BME280;68938;48.150;14.004;2023-05-07T12:10:56;98032.97;;;26.34;36.45
3260;BME280;68938;48.150;14.004;2023-05-07T12:13:26;98026.06;;;26.60;37.34
3260;BME280;68938;48.150;14.004;2023-05-07T12:15:56;98023.34;;;26.24;38.01
3260;BME280;68938;48.150;14.004;2023-05-07T12:18:24;98025.03;;;26.43;38.27
3260;BME280;68938;48.150;14.004;2023-05-07T12:20:51;98028.53;;;26.62;36.25
3260;BME280;68938;48.150;14.004;2023-05-07T12:23:19;98027.69;;;26.79;35.96
3260;BME280;68938;48.150;14.004;2023-05-07T12:25:47;98028.22;;;26.65;36.16
3260;BME280;68938;48.150;14.004;2023-05-07T12:28:18;98017.19;;;26.61;35.37
3260;BME280;68938;48.150;14.004;2023-05-07T12:30:47;98019.47;;;26.46;35.86
3260;BME280;68938;48.150;14.004;2023-05-07T12:33:19;98015.75;;;26.21;35.91
3260;BME280;68938;48.150;14.004;2023-05-07T12:35:50;98021.00;;;26.21;37.13
3260;BME280;68938;48.150;14.004;2023-05-07T12:38:18;98014.41;;;26.35;35.96
3260;BME280;68938;48.150;14.004;2023-05-07T12:40:49;98014.09;;;26.20;36.29
3260;BME280;68938;48.150;14.004;2023-05-07T12:43:24;98011.72;;;26.27;37.28
3260;BME280;68938;48.150;14.004;2023-05-07T12:46:05;98014.13;;;26.38;35.87
3260;BME280;68938;48.150;14.004;2023-05-07T12:48:36;98005.94;;;26.41;35.03
3260;BME280;68938;48.150;14.004;2023-05-07T12:51:05;98014.88;;;26.31;36.05
3260;BME280;68938;48.150;14.004;2023-05-07T12:53:32;98011.59;;;26.46;35.32
3260;BME280;68938;48.150;14.004;2023-05-07T12:55:59;98015.34;;;26.44;35.46
3260;BME280;68938;48.150;14.004;2023-05-07T12:58:32;98009.97;;;26.63;35.32
3260;BME280;68938;48.150;14.004;2023-05-07T13:01:07;98002.97;;;26.54;35.62
3260;BME280;68938;48.150;14.004;2023-05-07T13:03:36;97994.78;;;26.57;36.62
3260;BME280;68938;48.150;14.004;2023-05-07T13:06:09;97995.59;;;26.76;35.68
3260;BME280;68938;48.150;14.004;2023-05-07T13:08:38;97992.59;;;26.70;36.35
3260;BME280;68938;48.150;14.004;2023-05-07T13:11:08;97992.13;;;26.75;37.31
3260;BME280;68938;48.150;14.004;2023-05-07T13:13:37;97981.19;;;27.06;35.03
3260;BME280;68938;48.150;14.004;2023-05-07T13:16:05;97987.66;;;27.37;35.04
3260;BME280;68938;48.150;14.004;2023-05-07T13:18:34;97973.75;;;27.53;32.77
3260;BME280;68938;48.150;14.004;2023-05-07T13:21:01;97977.50;;;27.43;33.22
3260;BME280;68938;48.150;14.004;2023-05-07T13:23:28;97982.59;;;27.44;33.91
3260;BME280;68938;48.150;14.004;2023-05-07T13:25:55;97972.69;;;27.72;34.73
3260;BME280;68938;48.150;14.004;2023-05-07T13:28:23;97976.91;;;27.83;33.94